Time;durP1;ratioP1;P1;durP2;ratioP2;P2;SDS_P1;SDS_P2;PMS_P1;PMS_P2;Temp;Humidity;BMP_temperature;BMP_pressure;BME280_temperature;BME280_humidity;BME280_pressure;Samples;Min_cycle;Max_cycle;Signal;HPM_P1;HPM_P2
2022/03/31 00:04:56;;;;;;;18.88;8.02;;;;;;;;;;10483756;28;20029;-74
2022/03/31 00:09:58;;;;;;;21.65;8.85;;;;;;;;;;10478916;28;20109;-75
2022/03/31 00:15:01;;;;;;;19.25;9.23;;;;;;;;;;10480460;28;20350;-75
2022/03/31 00:20:07;;;;;;;21.90;8.20;;;;;;;;;;10472640;28;20515;-73
2022/03/31 00:36:30;;;;;;;20.80;8.63;;;;;;;;;;10477565;28;20341;-73
2022/03/31 00:41:34;;;;;;;;;;;;;;;;;;10481077;28;20039;-73
2022/03/31 00:46:46;;;;;;;25.52;9.32;;;;;;;;;;10474658;28;19948;-74
2022/03/31 00:51:52;;;;;;;24.17;9.25;;;;;;;;;;10473035;28;20523;-73
2022/03/31 00:56:57;;;;;;;23.63;9.82;;;;;;;;;;10471402;28;20039;-75
2022/03/31 01:02:00;;;;;;;24.10;10.10;;;;;;;;;;10479085;28;20097;-72
2022/03/31 01:07:05;;;;;;;23.63;9.68;;;;;;;;;;10478251;28;20457;-73
2022/03/31 01:12:10;;;;;;;23.13;9.57;;;;;;;;;;10474293;28;20040;-73
2022/03/31 01:17:13;;;;;;;22.77;8.93;;;;;;;;;;10474096;28;20028;-73
2022/03/31 01:22:17;;;;;;;24.20;9.63;;;;;;;;;;10477896;28;20065;-73
2022/03/31 01:27:23;;;;;;;24.98;9.40;;;;;;;;;;10477768;28;20037;-75
2022/03/31 01:32:27;;;;;;;26.58;10.10;;;;;;;;;;10478341;28;20077;-73
2022/03/31 01:37:30;;;;;;;26.52;9.90;;;;;;;;;;10477140;28;20037;-72
2022/03/31 01:42:36;;;;;;;27.10;11.52;;;;;;;;;;10479578;28;20044;-75
2022/03/31 01:47:39;;;;;;;26.67;9.70;;;;;;;;;;10481074;28;20037;-74
2022/03/31 01:52:43;;;;;;;25.52;10.73;;;;;;;;;;10478407;28;20036;-74
2022/03/31 01:57:47;;;;;;;25.38;10.77;;;;;;;;;;10476108;28;20828;-72
2022/03/31 02:02:51;;;;;;;25.88;9.88;;;;;;;;;;10475129;28;22772;-74
2022/03/31 02:07:55;;;;;;;27.70;10.87;;;;;;;;;;10474960;28;20037;-74
2022/03/31 02:13:01;;;;;;;28.15;10.85;;;;;;;;;;10472696;28;20048;-72
2022/03/31 02:18:05;;;;;;;23.73;9.52;;;;;;;;;;10471122;28;20041;-74
2022/03/31 02:23:09;;;;;;;;;;;;;;;;;;10476603;28;20036;-74
2022/03/31 02:28:13;;;;;;;30.27;10.68;;;;;;;;;;10471140;28;19927;-73
2022/03/31 02:33:16;;;;;;;24.60;7.97;;;;;;;;;;10472971;28;20256;-73
2022/03/31 02:38:19;;;;;;;27.05;10.38;;;;;;;;;;10469455;28;20404;-73
2022/03/31 02:43:23;;;;;;;22.65;8.43;;;;;;;;;;10471024;28;20035;-73
2022/03/31 02:48:26;;;;;;;25.45;10.30;;;;;;;;;;10469714;28;20106;-72
2022/03/31 02:58:51;;;;;;;26.20;8.98;;;;;;;;;;10468782;28;20449;-73
2022/03/31 03:03:53;;;;;;;;;;;;;;;;;;10473244;28;20029;-74
2022/03/31 03:08:56;;;;;;;24.23;9.32;;;;;;;;;;10473639;28;19971;-73
2022/03/31 03:14:00;;;;;;;24.35;9.35;;;;;;;;;;10470412;28;20028;-73
2022/03/31 03:19:02;;;;;;;;;;;;;;;;;;10470363;28;20039;-73
2022/03/31 03:24:06;;;;;;;26.67;9.32;;;;;;;;;;10473610;28;19977;-74
2022/03/31 03:29:10;;;;;;;28.70;10.35;;;;;;;;;;10474126;28;20060;-74
2022/03/31 03:34:15;;;;;;;24.00;9.55;;;;;;;;;;10485226;28;20109;-74
2022/03/31 03:39:18;;;;;;;19.80;7.70;;;;;;;;;;10471306;28;20041;-74
2022/03/31 03:44:22;;;;;;;26.05;9.23;;;;;;;;;;10465398;28;20087;-73
2022/03/31 03:49:25;;;;;;;;;;;;;;;;;;10469464;28;20044;-73
2022/03/31 03:54:28;;;;;;;29.20;9.50;;;;;;;;;;10469072;28;20293;-74
2022/03/31 03:59:32;;;;;;;26.08;9.10;;;;;;;;;;10470106;28;20044;-73
2022/03/31 04:04:35;;;;;;;25.10;9.80;;;;;;;;;;10468755;28;20123;-75
2022/03/31 04:09:38;;;;;;;25.60;10.10;;;;;;;;;;10469942;28;20499;-73
2022/03/31 04:14:42;;;;;;;28.50;10.77;;;;;;;;;;10475701;28;20124;-73
2022/03/31 04:19:44;;;;;;;;;;;;;;;;;;10471496;28;20048;-73
2022/03/31 04:24:47;;;;;;;31.75;11.07;;;;;;;;;;10471847;28;19966;-73
2022/03/31 04:29:51;;;;;;;29.65;11.10;;;;;;;;;;10465736;28;20565;-74
2022/03/31 04:34:54;;;;;;;;;;;;;;;;;;10475755;28;20586;-73
2022/03/31 04:39:56;;;;;;;32.08;11.73;;;;;;;;;;10475777;28;19956;-74
2022/03/31 04:45:02;;;;;;;33.75;11.70;;;;;;;;;;10473469;28;20029;-74
2022/03/31 04:50:05;;;;;;;35.25;12.82;;;;;;;;;;10480041;28;20032;-73
2022/03/31 04:55:08;;;;;;;37.53;13.17;;;;;;;;;;10471757;28;20094;-74
2022/03/31 05:00:13;;;;;;;45.13;12.53;;;;;;;;;;10475588;28;20063;-74
2022/03/31 05:05:16;;;;;;;37.83;12.57;;;;;;;;;;10478916;28;20048;-74
2022/03/31 05:10:19;;;;;;;33.45;11.50;;;;;;;;;;10474462;28;20574;-75
2022/03/31 05:15:23;;;;;;;38.57;12.13;;;;;;;;;;10478617;28;20037;-72
2022/03/31 05:20:26;;;;;;;;;;;;;;;;;;10471671;28;20040;-73
2022/03/31 05:25:29;;;;;;;42.42;13.05;;;;;;;;;;10475165;28;19939;-75
2022/03/31 05:30:34;;;;;;;35.08;12.77;;;;;;;;;;10475607;28;20459;-75
2022/03/31 05:35:36;;;;;;;31.40;11.18;;;;;;;;;;10474450;28;20036;-74
2022/03/31 05:40:39;;;;;;;33.17;12.35;;;;;;;;;;10469593;28;20036;-74
2022/03/31 05:45:43;;;;;;;35.88;11.48;;;;;;;;;;10473014;28;20036;-73
2022/03/31 05:50:47;;;;;;;31.50;11.18;;;;;;;;;;10476544;28;20221;-74
2022/03/31 05:55:49;;;;;;;33.95;12.07;;;;;;;;;;10476246;28;20060;-74
2022/03/31 06:00:54;;;;;;;27.20;10.25;;;;;;;;;;10472047;28;20503;-74
2022/03/31 06:05:57;;;;;;;33.10;11.82;;;;;;;;;;10477541;28;20090;-73
2022/03/31 06:11:00;;;;;;;44.80;12.90;;;;;;;;;;10467327;28;20055;-74
2022/03/31 06:16:05;;;;;;;35.50;12.35;;;;;;;;;;10469129;28;20048;-72
2022/03/31 06:21:09;;;;;;;32.80;11.20;;;;;;;;;;10468093;28;20450;-72
2022/03/31 06:26:12;;;;;;;33.05;11.45;;;;;;;;;;10473630;28;20490;-74
2022/03/31 06:31:17;;;;;;;38.15;12.60;;;;;;;;;;10467205;28;20113;-74
2022/03/31 06:36:19;;;;;;;43.45;14.98;;;;;;;;;;10468588;28;20040;-72
2022/03/31 06:41:22;;;;;;;45.50;14.35;;;;;;;;;;10464842;28;20416;-73
2022/03/31 06:46:26;;;;;;;44.47;13.55;;;;;;;;;;10464701;28;20032;-73
2022/03/31 06:51:34;;;;;;;34.75;12.07;;;;;;;;;;10472338;28;20595;-73
2022/03/31 06:56:37;;;;;;;39.90;14.15;;;;;;;;;;10462043;28;20029;-72
2022/03/31 07:01:41;;;;;;;33.72;12.20;;;;;;;;;;10464455;28;20534;-73
2022/03/31 07:06:44;;;;;;;38.45;13.13;;;;;;;;;;10463855;28;20033;-73
2022/03/31 07:11:47;;;;;;;32.05;11.93;;;;;;;;;;10461447;28;20044;-72
2022/03/31 07:16:51;;;;;;;39.20;13.27;;;;;;;;;;10463944;28;20110;-72
2022/03/31 07:21:55;;;;;;;32.05;12.60;;;;;;;;;;10469328;28;20107;-73
2022/03/31 07:26:58;;;;;;;;;;;;;;;;;;10465765;28;20451;-74
2022/03/31 07:32:02;;;;;;;35.10;12.23;;;;;;;;;;10467575;28;20377;-75
2022/03/31 07:37:05;;;;;;;35.72;13.30;;;;;;;;;;10466312;28;20044;-74
2022/03/31 07:42:08;;;;;;;38.00;13.93;;;;;;;;;;10465914;28;20127;-74
2022/03/31 07:47:12;;;;;;;38.17;13.77;;;;;;;;;;10463962;28;20089;-71
2022/03/31 07:52:15;;;;;;;36.28;13.73;;;;;;;;;;10468265;28;20036;-74
2022/03/31 07:57:38;;;;;;;33.08;13.57;;;;;;;;;;10468344;28;20052;-73
2022/03/31 08:02:44;;;;;;;41.55;12.30;;;;;;;;;;10466835;28;20464;-73
2022/03/31 08:07:47;;;;;;;31.77;11.40;;;;;;;;;;10467053;28;20380;-73
2022/03/31 08:12:51;;;;;;;32.13;12.45;;;;;;;;;;10473024;28;20545;-73
2022/03/31 08:17:58;;;;;;;30.67;11.63;;;;;;;;;;10472222;28;20512;-74
2022/03/31 08:23:01;;;;;;;29.63;12.10;;;;;;;;;;10469511;28;20136;-73
2022/03/31 08:28:04;;;;;;;34.58;12.63;;;;;;;;;;10478211;28;20051;-74
2022/03/31 08:33:09;;;;;;;30.25;12.48;;;;;;;;;;10476340;28;20041;-74
2022/03/31 08:38:17;;;;;;;27.33;11.43;;;;;;;;;;10480619;28;20055;-75
2022/03/31 08:43:23;;;;;;;24.25;10.52;;;;;;;;;;10484363;28;20034;-73
2022/03/31 08:48:27;;;;;;;29.75;11.85;;;;;;;;;;10478126;28;20033;-73
2022/03/31 08:53:30;;;;;;;24.52;9.90;;;;;;;;;;10474412;28;20201;-74
2022/03/31 08:58:33;;;;;;;25.30;10.70;;;;;;;;;;10480849;28;20424;-72
2022/03/31 09:03:38;;;;;;;28.85;11.75;;;;;;;;;;10483405;28;20049;-74
2022/03/31 09:08:41;;;;;;;25.15;11.98;;;;;;;;;;10478989;28;20095;-74
2022/03/31 09:13:44;;;;;;;26.87;11.40;;;;;;;;;;10476833;28;20590;-73
2022/03/31 09:18:48;;;;;;;27.85;11.30;;;;;;;;;;10466533;28;20526;-73
2022/03/31 09:23:51;;;;;;;27.52;11.35;;;;;;;;;;10469697;28;20086;-76
2022/03/31 09:28:55;;;;;;;26.75;11.25;;;;;;;;;;10474896;28;20120;-72
2022/03/31 09:33:59;;;;;;;28.80;11.25;;;;;;;;;;10468838;28;20056;-74
2022/03/31 09:39:05;;;;;;;24.60;9.65;;;;;;;;;;10465766;28;20036;-73
2022/03/31 09:44:09;;;;;;;27.77;11.13;;;;;;;;;;10471488;28;20461;-73
2022/03/31 09:49:14;;;;;;;26.08;10.25;;;;;;;;;;10468492;28;20025;-74
2022/03/31 09:54:18;;;;;;;31.25;12.27;;;;;;;;;;10473428;28;20045;-74
2022/03/31 09:59:21;;;;;;;27.88;10.80;;;;;;;;;;10464763;28;20114;-73
2022/03/31 10:04:30;;;;;;;26.15;11.35;;;;;;;;;;10466837;28;20301;-72
2022/03/31 10:09:36;;;;;;;25.33;9.98;;;;;;;;;;10470843;28;20309;-74
2022/03/31 10:14:43;;;;;;;30.33;10.02;;;;;;;;;;10466386;28;20037;-73
2022/03/31 10:19:48;;;;;;;26.20;10.57;;;;;;;;;;10469575;28;20043;-73
2022/03/31 10:24:54;;;;;;;26.83;11.30;;;;;;;;;;10467369;28;20124;-73
2022/03/31 10:30:08;;;;;;;28.98;11.57;;;;;;;;;;10466159;28;20099;-75
2022/03/31 10:35:10;;;;;;;;;;;;;;;;;;10473695;28;20117;-74
2022/03/31 10:40:27;;;;;;;28.27;11.03;;;;;;;;;;10463653;28;19924;-74
2022/03/31 10:45:35;;;;;;;28.65;11.30;;;;;;;;;;10469035;28;20306;-74
2022/03/31 10:50:38;;;;;;;25.40;9.88;;;;;;;;;;10468820;28;20063;-72
2022/03/31 10:55:44;;;;;;;26.27;11.75;;;;;;;;;;10464383;28;21025;-73
2022/03/31 11:00:48;;;;;;;27.02;10.88;;;;;;;;;;10465598;28;20028;-74
2022/03/31 11:05:52;;;;;;;26.90;10.95;;;;;;;;;;10470834;28;20130;-75
2022/03/31 11:10:57;;;;;;;24.35;9.77;;;;;;;;;;10471138;28;20094;-73
2022/03/31 11:16:01;;;;;;;30.98;11.15;;;;;;;;;;10467668;28;20425;-73
2022/03/31 11:21:04;;;;;;;22.98;9.32;;;;;;;;;;10469711;28;20043;-74
2022/03/31 11:26:08;;;;;;;27.83;9.60;;;;;;;;;;10465950;28;20466;-73
2022/03/31 11:31:14;;;;;;;29.52;10.38;;;;;;;;;;10467813;28;20083;-73
2022/03/31 11:36:18;;;;;;;26.50;10.65;;;;;;;;;;10470492;28;20048;-73
2022/03/31 11:41:24;;;;;;;29.92;9.55;;;;;;;;;;10469827;28;20033;-73
2022/03/31 11:46:48;;;;;;;26.92;10.07;;;;;;;;;;10471071;28;20055;-74
2022/03/31 11:51:52;;;;;;;26.13;9.57;;;;;;;;;;10470737;28;20045;-74
2022/03/31 11:57:04;;;;;;;25.45;10.07;;;;;;;;;;10480906;28;20491;-72
2022/03/31 12:02:13;;;;;;;26.60;6.55;;;;;;;;;;10473847;28;20040;-73
2022/03/31 12:07:17;;;;;;;23.33;8.63;;;;;;;;;;10474598;28;20056;-73
2022/03/31 12:12:21;;;;;;;25.08;10.00;;;;;;;;;;10476753;28;20127;-73
2022/03/31 12:17:25;;;;;;;26.98;9.27;;;;;;;;;;10479035;28;20925;-74
2022/03/31 12:22:31;;;;;;;29.10;10.35;;;;;;;;;;10476836;28;20282;-74
2022/03/31 12:27:45;;;;;;;25.27;8.95;;;;;;;;;;10473843;28;20094;-74
2022/03/31 12:32:48;;;;;;;26.97;8.87;;;;;;;;;;10475515;28;20085;-74
2022/03/31 12:37:51;;;;;;;15.25;6.78;;;;;;;;;;10477839;28;20140;-74
2022/03/31 12:42:57;;;;;;;18.25;7.22;;;;;;;;;;10475068;28;20051;-73
2022/03/31 12:48:07;;;;;;;21.40;8.15;;;;;;;;;;10468689;28;20032;-73
2022/03/31 12:53:10;;;;;;;21.33;8.07;;;;;;;;;;10465752;28;20047;-72
2022/03/31 12:58:13;;;;;;;;;;;;;;;;;;10477984;28;20039;-72
2022/03/31 13:03:19;;;;;;;17.70;8.35;;;;;;;;;;10466947;28;20020;-74
2022/03/31 13:08:22;;;;;;;19.83;7.80;;;;;;;;;;10469927;28;20147;-74
2022/03/31 13:13:25;;;;;;;22.63;7.90;;;;;;;;;;10472419;28;20068;-74
2022/03/31 13:18:50;;;;;;;19.52;7.93;;;;;;;;;;10461084;28;20912;-73
2022/03/31 13:23:52;;;;;;;24.75;8.57;;;;;;;;;;10466317;28;20041;-74
2022/03/31 13:28:56;;;;;;;21.90;8.17;;;;;;;;;;10470592;28;20051;-73
2022/03/31 13:34:00;;;;;;;20.42;7.95;;;;;;;;;;10474367;28;20031;-71
2022/03/31 13:39:05;;;;;;;23.25;9.13;;;;;;;;;;10469400;28;20142;-72
2022/03/31 13:44:08;;;;;;;21.33;8.05;;;;;;;;;;10485484;28;20044;-74
2022/03/31 13:49:12;;;;;;;15.45;7.13;;;;;;;;;;10478806;28;20081;-73
2022/03/31 13:54:16;;;;;;;18.33;7.38;;;;;;;;;;10475819;28;20037;-73
2022/03/31 14:04:42;;;;;;;22.27;6.82;;;;;;;;;;10474037;28;20064;-73
2022/03/31 14:09:45;;;;;;;15.32;6.32;;;;;;;;;;10471455;28;20051;-72
2022/03/31 14:14:47;;;;;;;19.50;7.97;;;;;;;;;;10473651;28;20094;-74
2022/03/31 14:19:52;;;;;;;18.70;8.35;;;;;;;;;;10473639;28;20489;-73
2022/03/31 14:24:55;;;;;;;17.20;7.07;;;;;;;;;;10475472;28;20042;-73
2022/03/31 14:29:57;;;;;;;22.13;7.88;;;;;;;;;;10473479;28;20736;-73
2022/03/31 14:35:02;;;;;;;18.53;7.50;;;;;;;;;;10473875;28;20140;-74
2022/03/31 14:40:08;;;;;;;16.42;6.13;;;;;;;;;;10475798;28;20033;-74
2022/03/31 14:45:11;;;;;;;20.70;7.82;;;;;;;;;;10477257;28;21496;-73
2022/03/31 14:50:22;;;;;;;19.70;7.03;;;;;;;;;;10475545;28;20098;-73
2022/03/31 14:55:26;;;;;;;19.23;6.78;;;;;;;;;;10472269;28;20045;-73
2022/03/31 15:00:29;;;;;;;17.63;6.65;;;;;;;;;;10469121;28;20041;-75
2022/03/31 15:05:33;;;;;;;21.37;7.10;;;;;;;;;;10468258;28;20036;-75
2022/03/31 15:16:05;;;;;;;18.77;7.40;;;;;;;;;;10474263;28;20455;-74
2022/03/31 15:21:10;;;;;;;17.97;6.60;;;;;;;;;;10471182;28;20051;-72
2022/03/31 15:26:13;;;;;;;21.98;6.57;;;;;;;;;;10473656;28;20766;-75
2022/03/31 15:31:16;;;;;;;19.20;6.30;;;;;;;;;;10467946;28;20441;-74
2022/03/31 15:36:19;;;;;;;;;;;;;;;;;;10474444;28;20081;-73
2022/03/31 15:41:23;;;;;;;14.95;6.38;;;;;;;;;;10509478;28;19950;-73
2022/03/31 15:46:29;;;;;;;21.48;7.25;;;;;;;;;;10504343;28;20554;-73
2022/03/31 15:51:32;;;;;;;31.10;11.23;;;;;;;;;;10477221;28;20120;-74
2022/03/31 15:56:37;;;;;;;23.57;8.97;;;;;;;;;;10469311;28;20037;-74
2022/03/31 16:01:39;;;;;;;12.63;5.10;;;;;;;;;;10470571;28;20655;-74
2022/03/31 16:06:42;;;;;;;15.93;5.77;;;;;;;;;;10471553;28;20064;-73
2022/03/31 16:11:46;;;;;;;19.13;7.45;;;;;;;;;;10468516;28;20048;-74
2022/03/31 16:16:49;;;;;;;14.23;5.03;;;;;;;;;;10473569;28;20041;-72
2022/03/31 16:21:52;;;;;;;25.33;8.98;;;;;;;;;;10472793;28;20526;-73
2022/03/31 16:26:57;;;;;;;22.75;8.50;;;;;;;;;;10474101;28;20048;-72
2022/03/31 16:32:00;;;;;;;18.77;7.45;;;;;;;;;;10484782;28;20033;-74
2022/03/31 16:37:03;;;;;;;;;;;;;;;;;;10481007;28;20040;-74
2022/03/31 16:42:07;;;;;;;16.65;6.75;;;;;;;;;;10475862;28;19928;-74
2022/03/31 16:47:10;;;;;;;18.50;6.03;;;;;;;;;;10475054;28;20040;-75
2022/03/31 16:52:14;;;;;;;19.25;7.47;;;;;;;;;;10471453;28;20071;-72
2022/03/31 16:57:18;;;;;;;23.70;8.52;;;;;;;;;;10474832;28;20189;-75
2022/03/31 17:02:21;;;;;;;22.58;8.38;;;;;;;;;;10475201;28;20041;-73
2022/03/31 17:07:24;;;;;;;22.80;8.07;;;;;;;;;;10477948;28;20040;-74
2022/03/31 17:12:28;;;;;;;25.23;9.50;;;;;;;;;;10480155;28;20488;-73
2022/03/31 17:17:32;;;;;;;25.13;8.70;;;;;;;;;;10480397;28;20055;-75
2022/03/31 17:22:40;;;;;;;29.73;9.00;;;;;;;;;;10482759;28;20047;-73
2022/03/31 17:27:45;;;;;;;23.45;9.00;;;;;;;;;;10480401;28;20032;-74
2022/03/31 17:32:47;;;;;;;27.92;9.77;;;;;;;;;;10479615;28;20032;-73
2022/03/31 17:37:51;;;;;;;26.65;10.07;;;;;;;;;;10481486;28;20033;-74
2022/03/31 17:42:56;;;;;;;28.10;10.07;;;;;;;;;;10484020;28;20042;-75
2022/03/31 17:47:59;;;;;;;28.98;9.73;;;;;;;;;;10484887;28;20037;-73
2022/03/31 17:53:02;;;;;;;28.52;10.43;;;;;;;;;;10485651;28;20041;-73
2022/03/31 17:58:09;;;;;;;34.22;11.43;;;;;;;;;;10482528;22;20556;-72
2022/03/31 18:03:14;;;;;;;26.92;9.95;;;;;;;;;;10457272;28;20523;-73
2022/03/31 18:08:17;;;;;;;25.35;9.65;;;;;;;;;;10447892;28;20044;-73
2022/03/31 18:13:21;;;;;;;27.70;10.15;;;;;;;;;;10441263;28;20046;-75
2022/03/31 18:18:27;;;;;;;23.92;8.45;;;;;;;;;;10443014;28;20037;-73
2022/03/31 18:23:29;;;;;;;24.48;9.55;;;;;;;;;;10444784;28;20644;-73
2022/03/31 18:28:34;;;;;;;25.48;9.43;;;;;;;;;;10432605;28;20083;-74
2022/03/31 18:33:53;;;;;;;24.50;8.90;;;;;;;;;;10437589;28;20044;-74
2022/03/31 18:38:57;;;;;;;28.20;10.57;;;;;;;;;;10441738;28;20063;-73
2022/03/31 18:44:02;;;;;;;27.52;9.52;;;;;;;;;;10432321;28;20478;-73
2022/03/31 18:49:06;;;;;;;24.48;8.77;;;;;;;;;;10434184;28;20060;-74
2022/03/31 18:54:13;;;;;;;26.08;9.32;;;;;;;;;;10440644;28;20530;-75
2022/03/31 18:59:18;;;;;;;23.48;7.82;;;;;;;;;;10440482;28;20044;-73
2022/03/31 19:04:21;;;;;;;22.95;8.75;;;;;;;;;;10436433;28;20041;-74
2022/03/31 19:09:24;;;;;;;33.03;10.53;;;;;;;;;;10442259;28;20507;-75
2022/03/31 19:14:29;;;;;;;23.98;8.95;;;;;;;;;;10438279;28;20132;-73
2022/03/31 19:19:53;;;;;;;23.73;8.52;;;;;;;;;;10444912;28;20496;-73
2022/03/31 19:24:57;;;;;;;20.88;7.82;;;;;;;;;;10436574;28;20037;-74
2022/03/31 19:30:01;;;;;;;20.10;8.20;;;;;;;;;;10440690;28;20037;-74
2022/03/31 19:35:05;;;;;;;18.92;7.57;;;;;;;;;;10427957;28;20032;-74
2022/03/31 19:40:11;;;;;;;24.98;8.88;;;;;;;;;;10430126;28;20613;-73
2022/03/31 19:45:15;;;;;;;23.33;8.18;;;;;;;;;;10425578;28;20044;-74
2022/03/31 19:50:18;;;;;;;19.42;8.05;;;;;;;;;;10425348;28;20504;-75
2022/03/31 19:55:21;;;;;;;20.03;7.93;;;;;;;;;;10437081;28;20501;-75
2022/03/31 20:00:26;;;;;;;26.17;9.10;;;;;;;;;;10432691;28;20033;-73
2022/03/31 20:05:32;;;;;;;21.95;8.13;;;;;;;;;;10442885;28;20045;-74
2022/03/31 20:10:44;;;;;;;23.03;8.73;;;;;;;;;;10445046;28;20562;-74
2022/03/31 20:15:48;;;;;;;24.58;7.88;;;;;;;;;;10437347;28;20049;-72
2022/03/31 20:20:52;;;;;;;20.67;7.07;;;;;;;;;;10439067;28;20041;-74
2022/03/31 20:25:55;;;;;;;17.42;6.50;;;;;;;;;;10440453;28;20110;-74
2022/03/31 20:30:59;;;;;;;19.05;6.57;;;;;;;;;;10439030;28;20053;-73
2022/03/31 20:36:03;;;;;;;20.25;7.68;;;;;;;;;;10441295;28;20064;-72
2022/03/31 20:41:06;;;;;;;18.52;7.32;;;;;;;;;;10439420;28;20453;-73
2022/03/31 20:46:10;;;;;;;21.08;7.70;;;;;;;;;;10442565;28;20067;-74
2022/03/31 20:51:13;;;;;;;20.45;7.97;;;;;;;;;;10442645;28;20124;-75
2022/03/31 20:56:18;;;;;;;21.23;8.23;;;;;;;;;;10435661;28;20147;-73
2022/03/31 21:01:22;;;;;;;19.52;7.75;;;;;;;;;;10444743;28;20033;-74
2022/03/31 21:06:25;;;;;;;18.05;7.60;;;;;;;;;;10436495;28;20136;-74
2022/03/31 21:11:28;;;;;;;19.15;7.82;;;;;;;;;;10435316;28;20064;-72
2022/03/31 21:16:32;;;;;;;20.90;7.70;;;;;;;;;;10430792;28;20049;-74
2022/03/31 21:21:35;;;;;;;20.55;7.78;;;;;;;;;;10428191;28;20033;-74
2022/03/31 21:26:39;;;;;;;14.93;6.07;;;;;;;;;;10436559;28;20067;-76
2022/03/31 21:31:44;;;;;;;20.83;7.85;;;;;;;;;;10428788;28;20659;-75
2022/03/31 21:36:48;;;;;;;19.80;7.47;;;;;;;;;;10430793;28;20068;-73
2022/03/31 21:41:50;;;;;;;21.00;7.60;;;;;;;;;;10440941;28;20080;-75
2022/03/31 21:46:55;;;;;;;20.80;7.70;;;;;;;;;;10442464;28;20040;-74
2022/03/31 21:51:57;;;;;;;;;;;;;;;;;;10440901;28;20041;-72
2022/03/31 21:57:00;;;;;;;15.57;6.32;;;;;;;;;;10433012;28;20364;-74
2022/03/31 22:02:04;;;;;;;18.55;7.57;;;;;;;;;;10442803;28;20518;-75
2022/03/31 22:07:08;;;;;;;17.13;6.93;;;;;;;;;;10429589;28;20057;-76
2022/03/31 22:12:10;;;;;;;18.95;6.93;;;;;;;;;;10435020;28;20405;-74
2022/03/31 22:17:18;;;;;;;19.80;7.32;;;;;;;;;;10433447;28;20075;-74
2022/03/31 22:22:21;;;;;;;17.83;7.28;;;;;;;;;;10438308;28;20049;-76
2022/03/31 22:27:24;;;;;;;14.80;6.47;;;;;;;;;;10436152;28;20044;-77
2022/03/31 22:32:28;;;;;;;15.57;5.90;;;;;;;;;;10436454;28;20474;-77
2022/03/31 22:37:30;;;;;;;;;;;;;;;;;;10441133;28;20044;-75
2022/03/31 22:42:34;;;;;;;12.82;5.40;;;;;;;;;;10428346;28;20395;-74
2022/03/31 22:47:38;;;;;;;12.52;5.32;;;;;;;;;;10430805;28;20114;-75
2022/03/31 22:52:41;;;;;;;12.55;5.35;;;;;;;;;;10432433;28;20037;-74
2022/03/31 22:57:45;;;;;;;11.48;5.35;;;;;;;;;;10432392;28;20462;-75
2022/03/31 23:02:51;;;;;;;14.45;5.18;;;;;;;;;;10437639;28;20112;-76
2022/03/31 23:07:54;;;;;;;13.10;5.07;;;;;;;;;;10427700;28;20176;-77
2022/03/31 23:12:57;;;;;;;19.73;5.72;;;;;;;;;;10436045;28;20065;-75
2022/03/31 23:18:01;;;;;;;15.20;5.28;;;;;;;;;;10425709;28;20077;-74
2022/03/31 23:23:04;;;;;;;13.35;5.35;;;;;;;;;;10434361;28;20040;-75
2022/03/31 23:28:07;;;;;;;14.52;5.43;;;;;;;;;;10434949;28;20036;-75
2022/03/31 23:33:12;;;;;;;10.88;4.53;;;;;;;;;;10440975;28;20120;-76
2022/03/31 23:38:14;;;;;;;;;;;;;;;;;;10447085;28;20051;-75
2022/03/31 23:43:18;;;;;;;10.73;4.88;;;;;;;;;;10449432;28;20293;-76
2022/03/31 23:48:22;;;;;;;11.57;5.20;;;;;;;;;;10438919;28;20092;-76
2022/03/31 23:53:26;;;;;;;9.82;4.47;;;;;;;;;;10437888;28;20044;-76
2022/03/31 23:58:28;;;;;;;13.13;5.45;;;;;;;;;;10498641;22;20051;-73
